createdAt,value
2023-02-25T00:02:14.997Z,8.67
2023-02-25T00:04:43.298Z,8.30
2023-02-25T00:07:11.200Z,8.70
2023-02-25T00:09:39.321Z,9.13
2023-02-25T00:12:09.679Z,10.67
2023-02-25T00:14:37.842Z,10.43
2023-02-25T00:17:05.775Z,10.50
2023-02-25T00:19:34.374Z,10.83
2023-02-25T00:22:02.434Z,12.50
2023-02-25T00:24:30.908Z,11.83
2023-02-25T00:26:58.984Z,11.77
2023-02-25T00:29:27.517Z,12.30
2023-02-25T00:31:55.345Z,12.67
2023-02-25T00:34:23.514Z,11.20
2023-02-25T00:36:52.408Z,11.90
2023-02-25T00:39:22.067Z,12.57
2023-02-25T00:41:49.838Z,12.20
2023-02-25T00:44:19.567Z,11.70
2023-02-25T00:46:47.768Z,13.47
2023-02-25T00:49:31.507Z,13.33
2023-02-25T00:52:01.100Z,14.30
2023-02-25T00:54:30.467Z,13.77
2023-02-25T00:56:58.736Z,13.90
2023-02-25T00:59:27.192Z,14.43
2023-02-25T01:01:55.535Z,13.23
2023-02-25T01:04:24.656Z,13.77
2023-02-25T01:06:54.484Z,13.47
2023-02-25T01:09:23.456Z,13.67
2023-02-25T01:11:52.238Z,13.80
2023-02-25T01:14:24.423Z,14.27
2023-02-25T01:16:53.808Z,13.47
2023-02-25T01:19:25.180Z,14.37
2023-02-25T01:21:59.253Z,15.83
2023-02-25T01:24:30.691Z,15.90
2023-02-25T01:27:01.238Z,15.43
2023-02-25T01:29:40.727Z,14.03
2023-02-25T01:32:14.178Z,14.70
2023-02-25T01:34:42.436Z,15.63
2023-02-25T01:37:11.078Z,15.20
2023-02-25T01:39:42.237Z,14.87
2023-02-25T01:42:16.961Z,15.87
2023-02-25T01:45:19.303Z,16.10
2023-02-25T01:48:03.246Z,14.77
2023-02-25T01:50:41.939Z,14.97
2023-02-25T01:53:10.046Z,14.30
2023-02-25T01:55:41.603Z,15.80
2023-02-25T01:58:10.372Z,15.37
2023-02-25T02:00:40.930Z,14.60
2023-02-25T02:03:16.392Z,14.57
2023-02-25T02:06:08.756Z,16.07
2023-02-25T02:08:38.005Z,15.43
2023-02-25T02:11:06.686Z,16.43
2023-02-25T02:13:38.710Z,16.37
2023-02-25T02:16:18.725Z,16.90
2023-02-25T02:18:55.079Z,17.53
2023-02-25T02:21:46.563Z,15.40
2023-02-25T02:24:36.748Z,15.37
2023-02-25T02:27:10.819Z,16.07
2023-02-25T02:30:05.383Z,16.60
2023-02-25T02:32:44.071Z,16.70
2023-02-25T02:35:18.347Z,16.30
2023-02-25T02:38:17.429Z,16.00
2023-02-25T02:41:04.612Z,15.03
2023-02-25T02:43:45.808Z,16.73
2023-02-25T02:46:24.310Z,16.63
2023-02-25T02:48:58.735Z,16.13
2023-02-25T02:51:54.371Z,17.63
2023-02-25T02:54:25.437Z,17.30
2023-02-25T02:56:55.990Z,18.27
2023-02-25T02:59:50.670Z,18.83
2023-02-25T03:02:23.041Z,17.77
2023-02-25T03:04:54.130Z,17.43
2023-02-25T03:07:23.509Z,17.37
2023-02-25T03:09:55.989Z,18.10
2023-02-25T03:12:24.655Z,18.03
2023-02-25T03:14:52.732Z,18.30
2023-02-25T03:17:29.982Z,19.07
2023-02-25T03:20:11.914Z,18.13
2023-02-25T03:22:43.451Z,18.20
2023-02-25T03:25:19.294Z,18.50
2023-02-25T03:28:12.724Z,17.93
2023-02-25T03:30:53.030Z,19.43
2023-02-25T03:33:38.171Z,20.07
2023-02-25T03:36:14.400Z,19.33
2023-02-25T03:38:47.260Z,19.17
2023-02-25T03:41:18.427Z,20.83
2023-02-25T03:43:55.069Z,21.50
2023-02-25T03:46:28.147Z,22.77
2023-02-25T03:48:57.955Z,22.80
2023-02-25T03:51:31.468Z,22.43
2023-02-25T03:53:59.860Z,25.27
2023-02-25T03:56:44.813Z,24.33
2023-02-25T03:59:12.837Z,23.53
2023-02-25T04:01:44.297Z,23.47
2023-02-25T04:04:12.053Z,23.73
2023-02-25T04:06:40.453Z,24.00
2023-02-25T04:09:08.918Z,25.07
2023-02-25T04:11:37.220Z,25.30
2023-02-25T04:14:05.598Z,25.00
2023-02-25T04:16:34.275Z,25.03
2023-02-25T04:19:03.631Z,26.57
2023-02-25T04:21:36.690Z,24.27
2023-02-25T04:24:07.136Z,26.63
2023-02-25T04:26:36.125Z,26.70
2023-02-25T04:29:05.172Z,25.23
2023-02-25T04:31:33.523Z,26.80
2023-02-25T04:34:01.545Z,26.67
2023-02-25T04:36:35.411Z,26.80
2023-02-25T04:39:05.649Z,27.10
2023-02-25T04:41:35.743Z,27.77
2023-02-25T04:44:04.976Z,27.33
2023-02-25T04:46:35.848Z,26.93
2023-02-25T04:49:04.532Z,25.63
2023-02-25T04:51:33.631Z,26.00
2023-02-25T04:54:01.596Z,27.47
2023-02-25T04:56:30.181Z,25.77
2023-02-25T04:58:58.856Z,25.57
2023-02-25T05:01:27.048Z,26.23
2023-02-25T05:03:57.386Z,26.70
2023-02-25T05:06:26.125Z,26.47
2023-02-25T05:08:55.080Z,28.77
2023-02-25T05:11:24.388Z,28.40
2023-02-25T05:13:52.962Z,27.37
2023-02-25T05:16:22.280Z,25.33
2023-02-25T05:18:50.805Z,28.47
2023-02-25T05:21:22.590Z,27.10
2023-02-25T05:23:53.231Z,27.77
2023-02-25T05:26:26.811Z,27.47
2023-02-25T05:28:57.520Z,27.60
2023-02-25T05:31:26.424Z,29.53
2023-02-25T05:33:54.660Z,28.77
2023-02-25T05:36:25.917Z,28.53
2023-02-25T05:38:59.059Z,28.50
2023-02-25T05:41:27.341Z,29.30
2023-02-25T05:43:55.451Z,31.13
2023-02-25T05:46:23.839Z,29.67
2023-02-25T05:48:52.084Z,29.13
2023-02-25T05:51:22.894Z,29.80
2023-02-25T05:53:55.146Z,31.07
2023-02-25T05:56:30.928Z,27.90
2023-02-25T05:59:00.424Z,27.97
2023-02-25T06:01:29.689Z,29.03
2023-02-25T06:03:59.033Z,28.23
2023-02-25T06:06:29.820Z,28.37
2023-02-25T06:08:57.795Z,27.80
2023-02-25T06:11:29.532Z,30.47
